sensor_id;sensor_type;location;lat;lon;timestamp;P1;durP1;ratioP1;P2;durP2;ratioP2
74168;SDS011;62523;53.336;83.690;2023-08-01T00:03:48;33.22;;;18.70;;
74168;SDS011;62523;53.336;83.690;2023-08-01T00:08:50;47.53;;;20.95;;
74168;SDS011;62523;53.336;83.690;2023-08-01T00:13:52;26.80;;;20.43;;
74168;SDS011;62523;53.336;83.690;2023-08-01T00:18:54;30.77;;;20.67;;
74168;SDS011;62523;53.336;83.690;2023-08-01T00:23:56;37.38;;;19.48;;
74168;SDS011;62523;53.336;83.690;2023-08-01T00:28:57;46.90;;;23.30;;
74168;SDS011;62523;53.336;83.690;2023-08-01T00:33:59;51.58;;;23.40;;
74168;SDS011;62523;53.336;83.690;2023-08-01T00:39:00;50.08;;;23.13;;
74168;SDS011;62523;53.336;83.690;2023-08-01T00:44:02;37.70;;;22.75;;
74168;SDS011;62523;53.336;83.690;2023-08-01T00:49:04;61.53;;;23.58;;
74168;SDS011;62523;53.336;83.690;2023-08-01T00:54:06;64.22;;;25.40;;
74168;SDS011;62523;53.336;83.690;2023-08-01T00:59:08;61.20;;;25.05;;
74168;SDS011;62523;53.336;83.690;2023-08-01T01:04:10;54.70;;;24.77;;
74168;SDS011;62523;53.336;83.690;2023-08-01T01:09:15;62.97;;;25.48;;
74168;SDS011;62523;53.336;83.690;2023-08-01T01:14:17;92.33;;;57.07;;
74168;SDS011;62523;53.336;83.690;2023-08-01T01:19:19;52.70;;;22.75;;
74168;SDS011;62523;53.336;83.690;2023-08-01T01:24:22;83.63;;;51.45;;
74168;SDS011;62523;53.336;83.690;2023-08-01T01:29:26;52.60;;;29.65;;
74168;SDS011;62523;53.336;83.690;2023-08-01T01:34:28;41.22;;;22.30;;
74168;SDS011;62523;53.336;83.690;2023-08-01T01:39:30;36.53;;;19.63;;
74168;SDS011;62523;53.336;83.690;2023-08-01T01:44:31;45.67;;;27.55;;
74168;SDS011;62523;53.336;83.690;2023-08-01T01:49:33;41.20;;;20.93;;
74168;SDS011;62523;53.336;83.690;2023-08-01T01:54:35;41.88;;;23.38;;
74168;SDS011;62523;53.336;83.690;2023-08-01T01:59:37;43.58;;;21.55;;
74168;SDS011;62523;53.336;83.690;2023-08-01T02:04:38;31.60;;;18.95;;
74168;SDS011;62523;53.336;83.690;2023-08-01T02:09:40;52.92;;;26.27;;
74168;SDS011;62523;53.336;83.690;2023-08-01T02:14:43;37.63;;;23.93;;
74168;SDS011;62523;53.336;83.690;2023-08-01T02:19:45;34.78;;;23.20;;
74168;SDS011;62523;53.336;83.690;2023-08-01T02:24:46;58.75;;;23.80;;
74168;SDS011;62523;53.336;83.690;2023-08-01T02:29:48;43.83;;;20.73;;
74168;SDS011;62523;53.336;83.690;2023-08-01T02:34:51;41.27;;;13.27;;
74168;SDS011;62523;53.336;83.690;2023-08-01T02:39:52;22.15;;;11.23;;
74168;SDS011;62523;53.336;83.690;2023-08-01T02:44:54;12.27;;;7.82;;
74168;SDS011;62523;53.336;83.690;2023-08-01T02:49:56;15.45;;;7.28;;
74168;SDS011;62523;53.336;83.690;2023-08-01T02:54:58;11.25;;;6.18;;
74168;SDS011;62523;53.336;83.690;2023-08-01T03:00:00;6.07;;;5.28;;
74168;SDS011;62523;53.336;83.690;2023-08-01T03:05:06;6.90;;;5.15;;
74168;SDS011;62523;53.336;83.690;2023-08-01T03:10:09;10.52;;;4.38;;
74168;SDS011;62523;53.336;83.690;2023-08-01T03:15:12;12.13;;;4.55;;
74168;SDS011;62523;53.336;83.690;2023-08-01T03:20:13;5.57;;;4.00;;
74168;SDS011;62523;53.336;83.690;2023-08-01T03:25:15;15.13;;;4.47;;
74168;SDS011;62523;53.336;83.690;2023-08-01T03:30:17;5.00;;;4.50;;
74168;SDS011;62523;53.336;83.690;2023-08-01T03:35:19;10.65;;;5.22;;
74168;SDS011;62523;53.336;83.690;2023-08-01T03:40:20;5.07;;;4.43;;
74168;SDS011;62523;53.336;83.690;2023-08-01T03:45:22;9.23;;;4.78;;
74168;SDS011;62523;53.336;83.690;2023-08-01T03:50:24;5.88;;;4.82;;
74168;SDS011;62523;53.336;83.690;2023-08-01T03:55:25;12.70;;;5.85;;
74168;SDS011;62523;53.336;83.690;2023-08-01T04:00:27;10.10;;;6.27;;
74168;SDS011;62523;53.336;83.690;2023-08-01T04:05:33;6.38;;;4.75;;
74168;SDS011;62523;53.336;83.690;2023-08-01T04:10:35;6.67;;;5.23;;
74168;SDS011;62523;53.336;83.690;2023-08-01T04:15:36;8.13;;;5.07;;
74168;SDS011;62523;53.336;83.690;2023-08-01T04:20:39;7.57;;;4.50;;
74168;SDS011;62523;53.336;83.690;2023-08-01T04:25:41;9.02;;;4.80;;
74168;SDS011;62523;53.336;83.690;2023-08-01T04:30:48;13.87;;;5.30;;
74168;SDS011;62523;53.336;83.690;2023-08-01T04:35:53;32.55;;;6.00;;
74168;SDS011;62523;53.336;83.690;2023-08-01T04:40:54;9.25;;;5.78;;
74168;SDS011;62523;53.336;83.690;2023-08-01T04:45:56;7.83;;;5.43;;
74168;SDS011;62523;53.336;83.690;2023-08-01T04:50:58;15.18;;;6.68;;
74168;SDS011;62523;53.336;83.690;2023-08-01T04:55:59;18.50;;;5.30;;
74168;SDS011;62523;53.336;83.690;2023-08-01T05:01:01;4.83;;;4.33;;
74168;SDS011;62523;53.336;83.690;2023-08-01T05:06:02;13.27;;;5.90;;
74168;SDS011;62523;53.336;83.690;2023-08-01T05:11:04;18.23;;;5.97;;
74168;SDS011;62523;53.336;83.690;2023-08-01T05:16:06;13.10;;;6.20;;
74168;SDS011;62523;53.336;83.690;2023-08-01T05:21:08;9.70;;;7.68;;
74168;SDS011;62523;53.336;83.690;2023-08-01T05:26:09;8.10;;;6.28;;
74168;SDS011;62523;53.336;83.690;2023-08-01T05:31:11;8.20;;;6.55;;
74168;SDS011;62523;53.336;83.690;2023-08-01T05:36:12;9.57;;;6.32;;
74168;SDS011;62523;53.336;83.690;2023-08-01T05:41:14;10.55;;;6.00;;
74168;SDS011;62523;53.336;83.690;2023-08-01T05:46:15;10.38;;;7.05;;
74168;SDS011;62523;53.336;83.690;2023-08-01T05:51:17;5.20;;;4.35;;
74168;SDS011;62523;53.336;83.690;2023-08-01T05:56:18;6.90;;;4.50;;
74168;SDS011;62523;53.336;83.690;2023-08-01T06:01:21;9.25;;;5.43;;
74168;SDS011;62523;53.336;83.690;2023-08-01T06:06:23;8.90;;;5.77;;
74168;SDS011;62523;53.336;83.690;2023-08-01T06:11:25;11.02;;;7.22;;
74168;SDS011;62523;53.336;83.690;2023-08-01T06:16:27;7.05;;;5.75;;
74168;SDS011;62523;53.336;83.690;2023-08-01T06:21:29;10.87;;;6.10;;
74168;SDS011;62523;53.336;83.690;2023-08-01T06:26:30;6.93;;;6.00;;
74168;SDS011;62523;53.336;83.690;2023-08-01T06:31:32;22.65;;;11.40;;
74168;SDS011;62523;53.336;83.690;2023-08-01T06:36:34;17.42;;;8.63;;
74168;SDS011;62523;53.336;83.690;2023-08-01T06:41:36;21.65;;;6.90;;
74168;SDS011;62523;53.336;83.690;2023-08-01T06:46:37;10.82;;;6.47;;
74168;SDS011;62523;53.336;83.690;2023-08-01T06:51:39;11.43;;;7.03;;
74168;SDS011;62523;53.336;83.690;2023-08-01T06:56:42;8.02;;;6.47;;
74168;SDS011;62523;53.336;83.690;2023-08-01T07:01:48;10.03;;;6.93;;
74168;SDS011;62523;53.336;83.690;2023-08-01T07:06:49;18.25;;;8.25;;
74168;SDS011;62523;53.336;83.690;2023-08-01T07:11:51;21.00;;;9.57;;
74168;SDS011;62523;53.336;83.690;2023-08-01T07:16:53;10.17;;;7.07;;
74168;SDS011;62523;53.336;83.690;2023-08-01T07:21:55;9.60;;;8.43;;
74168;SDS011;62523;53.336;83.690;2023-08-01T07:26:56;12.98;;;7.63;;
74168;SDS011;62523;53.336;83.690;2023-08-01T07:31:58;24.02;;;9.32;;
74168;SDS011;62523;53.336;83.690;2023-08-01T07:37:00;13.23;;;8.07;;
74168;SDS011;62523;53.336;83.690;2023-08-01T07:42:02;17.58;;;8.85;;
74168;SDS011;62523;53.336;83.690;2023-08-01T07:47:04;11.77;;;9.80;;
74168;SDS011;62523;53.336;83.690;2023-08-01T07:52:06;22.50;;;9.37;;
74168;SDS011;62523;53.336;83.690;2023-08-01T07:57:08;13.43;;;8.13;;
74168;SDS011;62523;53.336;83.690;2023-08-01T08:02:10;8.73;;;7.78;;
74168;SDS011;62523;53.336;83.690;2023-08-01T08:07:11;12.82;;;8.00;;
74168;SDS011;62523;53.336;83.690;2023-08-01T08:12:13;17.98;;;9.05;;
74168;SDS011;62523;53.336;83.690;2023-08-01T08:17:14;11.10;;;8.25;;
74168;SDS011;62523;53.336;83.690;2023-08-01T08:22:16;11.73;;;5.80;;
74168;SDS011;62523;53.336;83.690;2023-08-01T08:27:18;15.90;;;7.53;;
74168;SDS011;62523;53.336;83.690;2023-08-01T08:32:19;9.80;;;5.22;;
74168;SDS011;62523;53.336;83.690;2023-08-01T08:37:21;9.00;;;6.05;;
74168;SDS011;62523;53.336;83.690;2023-08-01T08:42:22;12.05;;;5.97;;
74168;SDS011;62523;53.336;83.690;2023-08-01T08:47:25;11.93;;;5.13;;
74168;SDS011;62523;53.336;83.690;2023-08-01T08:52:28;18.75;;;6.50;;
74168;SDS011;62523;53.336;83.690;2023-08-01T08:57:31;25.27;;;6.57;;
74168;SDS011;62523;53.336;83.690;2023-08-01T09:02:33;10.70;;;6.72;;
74168;SDS011;62523;53.336;83.690;2023-08-01T09:07:35;22.17;;;6.82;;
74168;SDS011;62523;53.336;83.690;2023-08-01T09:12:42;12.13;;;4.80;;
74168;SDS011;62523;53.336;83.690;2023-08-01T09:17:48;9.27;;;5.57;;
74168;SDS011;62523;53.336;83.690;2023-08-01T09:22:54;4.72;;;3.80;;
74168;SDS011;62523;53.336;83.690;2023-08-01T09:27:56;7.96;;;4.88;;
74168;SDS011;62523;53.336;83.690;2023-08-01T09:32:58;9.92;;;5.70;;
74168;SDS011;62523;53.336;83.690;2023-08-01T09:37:59;3.86;;;3.20;;
74168;SDS011;62523;53.336;83.690;2023-08-01T09:43:01;6.40;;;3.90;;
74168;SDS011;62523;53.336;83.690;2023-08-01T09:48:03;10.20;;;4.80;;
74168;SDS011;62523;53.336;83.690;2023-08-01T09:53:08;3.60;;;3.20;;
74168;SDS011;62523;53.336;83.690;2023-08-01T09:58:09;3.63;;;3.10;;
74168;SDS011;62523;53.336;83.690;2023-08-01T10:03:14;13.23;;;4.32;;
74168;SDS011;62523;53.336;83.690;2023-08-01T10:08:16;11.48;;;4.45;;
74168;SDS011;62523;53.336;83.690;2023-08-01T10:13:19;6.00;;;4.05;;
74168;SDS011;62523;53.336;83.690;2023-08-01T10:18:24;5.75;;;4.20;;
74168;SDS011;62523;53.336;83.690;2023-08-01T10:23:27;5.25;;;4.75;;
74168;SDS011;62523;53.336;83.690;2023-08-01T10:28:32;3.80;;;3.45;;
74168;SDS011;62523;53.336;83.690;2023-08-01T10:33:36;9.68;;;4.32;;
74168;SDS011;62523;53.336;83.690;2023-08-01T10:38:49;5.88;;;3.42;;
74168;SDS011;62523;53.336;83.690;2023-08-01T10:43:52;10.57;;;3.45;;
74168;SDS011;62523;53.336;83.690;2023-08-01T10:49:13;8.70;;;4.07;;
74168;SDS011;62523;53.336;83.690;2023-08-01T10:54:18;4.78;;;3.45;;
74168;SDS011;62523;53.336;83.690;2023-08-01T10:59:23;5.18;;;3.22;;
74168;SDS011;62523;53.336;83.690;2023-08-01T11:04:25;3.67;;;3.38;;
74168;SDS011;62523;53.336;83.690;2023-08-01T11:09:27;4.65;;;4.18;;
74168;SDS011;62523;53.336;83.690;2023-08-01T11:14:29;7.85;;;4.35;;
74168;SDS011;62523;53.336;83.690;2023-08-01T11:19:30;3.70;;;2.67;;
74168;SDS011;62523;53.336;83.690;2023-08-01T11:24:32;3.40;;;3.10;;
74168;SDS011;62523;53.336;83.690;2023-08-01T11:29:37;3.53;;;3.22;;
74168;SDS011;62523;53.336;83.690;2023-08-01T11:34:41;5.38;;;3.25;;
74168;SDS011;62523;53.336;83.690;2023-08-01T11:39:47;3.78;;;3.45;;
74168;SDS011;62523;53.336;83.690;2023-08-01T11:44:49;4.10;;;3.50;;
74168;SDS011;62523;53.336;83.690;2023-08-01T11:49:51;4.10;;;3.42;;
74168;SDS011;62523;53.336;83.690;2023-08-01T11:54:53;5.25;;;3.03;;
74168;SDS011;62523;53.336;83.690;2023-08-01T11:59:55;5.75;;;3.30;;
74168;SDS011;62523;53.336;83.690;2023-08-01T12:05:00;4.50;;;2.97;;
74168;SDS011;62523;53.336;83.690;2023-08-01T12:10:01;4.32;;;3.75;;
74168;SDS011;62523;53.336;83.690;2023-08-01T12:15:05;3.73;;;3.30;;
74168;SDS011;62523;53.336;83.690;2023-08-01T12:20:07;12.47;;;4.10;;
74168;SDS011;62523;53.336;83.690;2023-08-01T12:25:09;3.92;;;2.67;;
74168;SDS011;62523;53.336;83.690;2023-08-01T12:30:10;3.73;;;3.37;;
74168;SDS011;62523;53.336;83.690;2023-08-01T12:35:12;9.02;;;3.50;;
74168;SDS011;62523;53.336;83.690;2023-08-01T12:40:17;6.22;;;3.22;;
74168;SDS011;62523;53.336;83.690;2023-08-01T12:45:20;5.00;;;3.60;;
74168;SDS011;62523;53.336;83.690;2023-08-01T12:50:21;7.13;;;3.85;;
74168;SDS011;62523;53.336;83.690;2023-08-01T12:55:23;4.82;;;4.22;;
74168;SDS011;62523;53.336;83.690;2023-08-01T13:00:24;8.98;;;4.55;;
74168;SDS011;62523;53.336;83.690;2023-08-01T13:05:26;5.78;;;4.25;;
74168;SDS011;62523;53.336;83.690;2023-08-01T13:10:35;16.20;;;4.65;;
74168;SDS011;62523;53.336;83.690;2023-08-01T13:15:37;8.60;;;4.63;;
74168;SDS011;62523;53.336;83.690;2023-08-01T13:20:39;25.25;;;4.65;;
74168;SDS011;62523;53.336;83.690;2023-08-01T13:25:43;35.20;;;18.57;;
74168;SDS011;62523;53.336;83.690;2023-08-01T13:30:47;6.47;;;4.68;;
74168;SDS011;62523;53.336;83.690;2023-08-01T13:35:50;10.88;;;5.50;;
74168;SDS011;62523;53.336;83.690;2023-08-01T13:40:53;8.77;;;5.33;;
74168;SDS011;62523;53.336;83.690;2023-08-01T13:45:55;6.65;;;5.10;;
74168;SDS011;62523;53.336;83.690;2023-08-01T13:50:59;8.23;;;5.82;;
74168;SDS011;62523;53.336;83.690;2023-08-01T13:56:00;12.70;;;5.67;;
74168;SDS011;62523;53.336;83.690;2023-08-01T14:01:02;17.60;;;5.47;;
74168;SDS011;62523;53.336;83.690;2023-08-01T14:06:09;20.85;;;6.18;;
74168;SDS011;62523;53.336;83.690;2023-08-01T14:11:12;38.33;;;6.90;;
74168;SDS011;62523;53.336;83.690;2023-08-01T14:16:13;15.43;;;5.68;;
74168;SDS011;62523;53.336;83.690;2023-08-01T14:21:15;31.88;;;5.40;;
74168;SDS011;62523;53.336;83.690;2023-08-01T14:26:16;22.27;;;6.63;;
74168;SDS011;62523;53.336;83.690;2023-08-01T14:31:18;13.40;;;7.68;;
74168;SDS011;62523;53.336;83.690;2023-08-01T14:36:20;14.93;;;7.35;;
74168;SDS011;62523;53.336;83.690;2023-08-01T14:41:21;32.40;;;7.10;;
74168;SDS011;62523;53.336;83.690;2023-08-01T14:46:23;16.58;;;6.63;;
74168;SDS011;62523;53.336;83.690;2023-08-01T14:51:24;14.27;;;6.90;;
74168;SDS011;62523;53.336;83.690;2023-08-01T14:56:26;10.30;;;8.20;;
74168;SDS011;62523;53.336;83.690;2023-08-01T15:01:27;9.03;;;7.07;;
74168;SDS011;62523;53.336;83.690;2023-08-01T15:06:29;7.78;;;6.88;;
74168;SDS011;62523;53.336;83.690;2023-08-01T15:11:31;8.50;;;6.68;;
74168;SDS011;62523;53.336;83.690;2023-08-01T15:16:32;21.73;;;12.83;;
74168;SDS011;62523;53.336;83.690;2023-08-01T15:21:34;26.67;;;13.45;;
74168;SDS011;62523;53.336;83.690;2023-08-01T15:26:36;19.73;;;10.27;;
74168;SDS011;62523;53.336;83.690;2023-08-01T15:31:37;16.63;;;8.90;;
74168;SDS011;62523;53.336;83.690;2023-08-01T15:36:40;12.10;;;9.23;;
74168;SDS011;62523;53.336;83.690;2023-08-01T15:41:48;11.25;;;8.77;;
74168;SDS011;62523;53.336;83.690;2023-08-01T15:46:50;15.50;;;9.10;;
74168;SDS011;62523;53.336;83.690;2023-08-01T15:51:52;9.30;;;8.30;;
74168;SDS011;62523;53.336;83.690;2023-08-01T15:56:54;14.07;;;8.47;;
74168;SDS011;62523;53.336;83.690;2023-08-01T16:01:56;10.93;;;6.63;;
74168;SDS011;62523;53.336;83.690;2023-08-01T16:06:58;18.23;;;8.77;;
74168;SDS011;62523;53.336;83.690;2023-08-01T16:12:00;9.23;;;7.50;;
74168;SDS011;62523;53.336;83.690;2023-08-01T16:17:01;11.88;;;7.40;;
74168;SDS011;62523;53.336;83.690;2023-08-01T16:22:03;9.18;;;7.18;;
74168;SDS011;62523;53.336;83.690;2023-08-01T16:27:05;16.90;;;7.67;;
74168;SDS011;62523;53.336;83.690;2023-08-01T16:32:07;12.27;;;6.45;;
74168;SDS011;62523;53.336;83.690;2023-08-01T16:37:09;7.33;;;5.73;;
74168;SDS011;62523;53.336;83.690;2023-08-01T16:42:11;15.85;;;6.72;;
74168;SDS011;62523;53.336;83.690;2023-08-01T16:47:16;12.00;;;6.75;;
74168;SDS011;62523;53.336;83.690;2023-08-01T16:52:18;8.27;;;6.93;;
74168;SDS011;62523;53.336;83.690;2023-08-01T16:57:19;8.35;;;7.35;;
74168;SDS011;62523;53.336;83.690;2023-08-01T17:02:21;12.40;;;7.43;;
74168;SDS011;62523;53.336;83.690;2023-08-01T17:07:23;18.37;;;8.43;;
74168;SDS011;62523;53.336;83.690;2023-08-01T17:12:25;17.38;;;7.85;;
74168;SDS011;62523;53.336;83.690;2023-08-01T17:17:27;11.65;;;7.47;;
74168;SDS011;62523;53.336;83.690;2023-08-01T17:22:29;13.93;;;8.38;;
74168;SDS011;62523;53.336;83.690;2023-08-01T17:27:30;11.43;;;7.47;;
74168;SDS011;62523;53.336;83.690;2023-08-01T17:32:32;6.90;;;6.20;;
74168;SDS011;62523;53.336;83.690;2023-08-01T17:37:34;8.15;;;6.90;;
74168;SDS011;62523;53.336;83.690;2023-08-01T17:42:36;15.23;;;6.85;;
74168;SDS011;62523;53.336;83.690;2023-08-01T17:47:37;15.55;;;8.27;;
74168;SDS011;62523;53.336;83.690;2023-08-01T17:52:39;11.70;;;8.98;;
74168;SDS011;62523;53.336;83.690;2023-08-01T17:57:41;16.23;;;9.32;;
74168;SDS011;62523;53.336;83.690;2023-08-01T18:02:43;11.48;;;7.22;;
74168;SDS011;62523;53.336;83.690;2023-08-01T18:07:54;14.66;;;8.77;;
74168;SDS011;62523;53.336;83.690;2023-08-01T18:12:55;22.17;;;8.82;;
74168;SDS011;62523;53.336;83.690;2023-08-01T18:17:57;26.55;;;9.37;;
74168;SDS011;62523;53.336;83.690;2023-08-01T18:22:59;18.35;;;9.20;;
74168;SDS011;62523;53.336;83.690;2023-08-01T18:28:01;17.77;;;8.13;;
74168;SDS011;62523;53.336;83.690;2023-08-01T18:33:03;10.57;;;8.00;;
74168;SDS011;62523;53.336;83.690;2023-08-01T18:38:05;19.70;;;9.37;;
74168;SDS011;62523;53.336;83.690;2023-08-01T18:43:06;21.58;;;8.52;;
74168;SDS011;62523;53.336;83.690;2023-08-01T18:48:10;18.70;;;9.67;;
74168;SDS011;62523;53.336;83.690;2023-08-01T18:53:12;12.90;;;9.77;;
74168;SDS011;62523;53.336;83.690;2023-08-01T18:58:14;30.83;;;9.73;;
74168;SDS011;62523;53.336;83.690;2023-08-01T19:03:15;19.52;;;10.48;;
74168;SDS011;62523;53.336;83.690;2023-08-01T19:08:17;24.87;;;10.03;;
74168;SDS011;62523;53.336;83.690;2023-08-01T19:13:18;18.17;;;10.38;;
74168;SDS011;62523;53.336;83.690;2023-08-01T19:18:20;24.27;;;11.70;;
74168;SDS011;62523;53.336;83.690;2023-08-01T19:23:25;13.43;;;10.10;;
74168;SDS011;62523;53.336;83.690;2023-08-01T19:28:28;25.63;;;10.45;;
74168;SDS011;62523;53.336;83.690;2023-08-01T19:33:30;13.88;;;9.57;;
74168;SDS011;62523;53.336;83.690;2023-08-01T19:38:32;12.32;;;8.75;;
74168;SDS011;62523;53.336;83.690;2023-08-01T19:43:33;12.77;;;8.82;;
74168;SDS011;62523;53.336;83.690;2023-08-01T19:48:35;34.17;;;10.95;;
74168;SDS011;62523;53.336;83.690;2023-08-01T19:53:38;27.35;;;9.48;;
74168;SDS011;62523;53.336;83.690;2023-08-01T19:58:39;17.67;;;9.23;;
74168;SDS011;62523;53.336;83.690;2023-08-01T20:03:42;12.50;;;9.00;;
74168;SDS011;62523;53.336;83.690;2023-08-01T20:08:44;16.85;;;11.15;;
74168;SDS011;62523;53.336;83.690;2023-08-01T20:13:46;21.65;;;10.93;;
74168;SDS011;62523;53.336;83.690;2023-08-01T20:18:48;15.17;;;10.10;;
74168;SDS011;62523;53.336;83.690;2023-08-01T20:23:50;21.17;;;12.43;;
74168;SDS011;62523;53.336;83.690;2023-08-01T20:28:51;14.52;;;11.90;;
74168;SDS011;62523;53.336;83.690;2023-08-01T20:33:53;16.80;;;11.50;;
74168;SDS011;62523;53.336;83.690;2023-08-01T20:38:55;29.43;;;12.53;;
74168;SDS011;62523;53.336;83.690;2023-08-01T20:43:57;16.98;;;12.13;;
74168;SDS011;62523;53.336;83.690;2023-08-01T20:48:58;26.85;;;12.50;;
74168;SDS011;62523;53.336;83.690;2023-08-01T20:54:00;23.48;;;12.98;;
74168;SDS011;62523;53.336;83.690;2023-08-01T20:59:02;16.58;;;10.48;;
74168;SDS011;62523;53.336;83.690;2023-08-01T21:04:04;23.13;;;11.85;;
74168;SDS011;62523;53.336;83.690;2023-08-01T21:09:05;17.95;;;11.45;;
74168;SDS011;62523;53.336;83.690;2023-08-01T21:14:07;30.45;;;11.77;;
74168;SDS011;62523;53.336;83.690;2023-08-01T21:19:09;19.55;;;13.15;;
74168;SDS011;62523;53.336;83.690;2023-08-01T21:24:10;16.83;;;10.18;;
74168;SDS011;62523;53.336;83.690;2023-08-01T21:29:12;17.90;;;11.60;;
74168;SDS011;62523;53.336;83.690;2023-08-01T21:34:13;21.30;;;11.00;;
74168;SDS011;62523;53.336;83.690;2023-08-01T21:39:15;15.80;;;10.90;;
74168;SDS011;62523;53.336;83.690;2023-08-01T21:44:16;18.02;;;11.15;;
74168;SDS011;62523;53.336;83.690;2023-08-01T21:49:18;22.23;;;12.18;;
74168;SDS011;62523;53.336;83.690;2023-08-01T21:54:19;25.67;;;12.43;;
74168;SDS011;62523;53.336;83.690;2023-08-01T21:59:21;34.97;;;13.65;;
74168;SDS011;62523;53.336;83.690;2023-08-01T22:04:23;50.70;;;15.88;;
74168;SDS011;62523;53.336;83.690;2023-08-01T22:09:24;62.17;;;16.98;;
74168;SDS011;62523;53.336;83.690;2023-08-01T22:14:26;21.63;;;13.98;;
74168;SDS011;62523;53.336;83.690;2023-08-01T22:19:27;24.83;;;14.02;;
74168;SDS011;62523;53.336;83.690;2023-08-01T22:24:29;24.53;;;12.20;;
74168;SDS011;62523;53.336;83.690;2023-08-01T22:29:30;43.50;;;16.05;;
74168;SDS011;62523;53.336;83.690;2023-08-01T22:34:32;21.67;;;12.20;;
74168;SDS011;62523;53.336;83.690;2023-08-01T22:39:33;32.83;;;12.70;;
74168;SDS011;62523;53.336;83.690;2023-08-01T22:44:36;36.45;;;14.20;;
74168;SDS011;62523;53.336;83.690;2023-08-01T22:49:38;20.70;;;12.13;;
74168;SDS011;62523;53.336;83.690;2023-08-01T22:54:39;17.98;;;11.98;;
74168;SDS011;62523;53.336;83.690;2023-08-01T22:59:40;37.92;;;12.50;;
74168;SDS011;62523;53.336;83.690;2023-08-01T23:04:42;21.55;;;10.90;;
74168;SDS011;62523;53.336;83.690;2023-08-01T23:09:43;23.13;;;11.40;;
74168;SDS011;62523;53.336;83.690;2023-08-01T23:14:46;28.67;;;13.55;;
74168;SDS011;62523;53.336;83.690;2023-08-01T23:19:48;17.35;;;10.27;;
74168;SDS011;62523;53.336;83.690;2023-08-01T23:24:49;32.13;;;10.50;;
74168;SDS011;62523;53.336;83.690;2023-08-01T23:29:54;22.80;;;12.55;;
74168;SDS011;62523;53.336;83.690;2023-08-01T23:34:55;23.13;;;13.70;;
74168;SDS011;62523;53.336;83.690;2023-08-01T23:39:57;24.45;;;11.52;;
74168;SDS011;62523;53.336;83.690;2023-08-01T23:44:58;44.35;;;14.23;;
74168;SDS011;62523;53.336;83.690;2023-08-01T23:50:00;53.58;;;14.80;;
74168;SDS011;62523;53.336;83.690;2023-08-01T23:55:04;57.05;;;17.48;;
